sensor_id;sensor_type;location;lat;lon;timestamp;temperature;humidity
74822;DHT22;63353;48.702;8.884;2023-07-30T00:01:12;17.10;99.90
74822;DHT22;63353;48.702;8.884;2023-07-30T00:03:40;17.10;99.90
74822;DHT22;63353;48.702;8.884;2023-07-30T00:06:06;17.10;99.90
74822;DHT22;63353;48.702;8.884;2023-07-30T00:08:31;17.20;99.90
74822;DHT22;63353;48.702;8.884;2023-07-30T00:11:03;17.20;99.90
74822;DHT22;63353;48.702;8.884;2023-07-30T00:13:32;17.20;99.90
74822;DHT22;63353;48.702;8.884;2023-07-30T00:15:57;17.20;99.90
74822;DHT22;63353;48.702;8.884;2023-07-30T00:18:23;17.20;99.90
74822;DHT22;63353;48.702;8.884;2023-07-30T00:20:52;17.30;99.90
74822;DHT22;63353;48.702;8.884;2023-07-30T00:23:17;17.30;99.90
74822;DHT22;63353;48.702;8.884;2023-07-30T00:25:43;17.20;99.90
74822;DHT22;63353;48.702;8.884;2023-07-30T00:28:08;17.10;99.90
74822;DHT22;63353;48.702;8.884;2023-07-30T00:30:37;17.10;99.90
74822;DHT22;63353;48.702;8.884;2023-07-30T00:33:09;17.10;99.90
74822;DHT22;63353;48.702;8.884;2023-07-30T00:35:35;17.10;99.90
74822;DHT22;63353;48.702;8.884;2023-07-30T00:38:00;17.10;99.90
74822;DHT22;63353;48.702;8.884;2023-07-30T00:40:29;17.00;99.90
74822;DHT22;63353;48.702;8.884;2023-07-30T00:42:54;17.00;99.90
74822;DHT22;63353;48.702;8.884;2023-07-30T00:45:20;17.00;99.90
74822;DHT22;63353;48.702;8.884;2023-07-30T00:47:52;17.00;99.90
74822;DHT22;63353;48.702;8.884;2023-07-30T00:50:24;17.00;99.90
74822;DHT22;63353;48.702;8.884;2023-07-30T00:52:50;16.90;99.90
74822;DHT22;63353;48.702;8.884;2023-07-30T00:55:16;16.90;99.90
74822;DHT22;63353;48.702;8.884;2023-07-30T00:57:51;16.80;99.90
74822;DHT22;63353;48.702;8.884;2023-07-30T01:00:17;16.80;99.90
74822;DHT22;63353;48.702;8.884;2023-07-30T01:02:52;16.80;99.90
74822;DHT22;63353;48.702;8.884;2023-07-30T01:05:24;16.80;99.90
74822;DHT22;63353;48.702;8.884;2023-07-30T01:07:49;16.70;99.90
74822;DHT22;63353;48.702;8.884;2023-07-30T01:10:18;16.70;99.90
74822;DHT22;63353;48.702;8.884;2023-07-30T01:12:50;16.60;99.90
74822;DHT22;63353;48.702;8.884;2023-07-30T01:15:20;16.60;99.90
74822;DHT22;63353;48.702;8.884;2023-07-30T01:17:55;16.60;99.90
74822;DHT22;63353;48.702;8.884;2023-07-30T01:20:23;16.50;99.90
74822;DHT22;63353;48.702;8.884;2023-07-30T01:22:49;16.40;99.90
74822;DHT22;63353;48.702;8.884;2023-07-30T01:25:15;16.40;99.90
74822;DHT22;63353;48.702;8.884;2023-07-30T01:27:47;16.30;99.90
74822;DHT22;63353;48.702;8.884;2023-07-30T01:30:26;16.20;99.90
74822;DHT22;63353;48.702;8.884;2023-07-30T01:32:56;16.20;99.90
74822;DHT22;63353;48.702;8.884;2023-07-30T01:35:26;16.10;99.90
74822;DHT22;63353;48.702;8.884;2023-07-30T01:37:53;16.00;99.90
74822;DHT22;63353;48.702;8.884;2023-07-30T01:40:20;16.00;99.90
74822;DHT22;63353;48.702;8.884;2023-07-30T01:42:46;16.00;99.90
74822;DHT22;63353;48.702;8.884;2023-07-30T01:45:14;16.00;99.90
74822;DHT22;63353;48.702;8.884;2023-07-30T01:47:40;16.00;99.90
74822;DHT22;63353;48.702;8.884;2023-07-30T01:50:06;16.00;99.90
74822;DHT22;63353;48.702;8.884;2023-07-30T01:52:37;16.00;99.90
74822;DHT22;63353;48.702;8.884;2023-07-30T01:55:09;16.00;99.90
74822;DHT22;63353;48.702;8.884;2023-07-30T01:57:35;16.00;99.90
74822;DHT22;63353;48.702;8.884;2023-07-30T02:00:00;16.00;99.90
74822;DHT22;63353;48.702;8.884;2023-07-30T02:02:29;16.10;99.90
74822;DHT22;63353;48.702;8.884;2023-07-30T02:05:13;16.00;99.90
74822;DHT22;63353;48.702;8.884;2023-07-30T02:07:45;16.00;99.90
74822;DHT22;63353;48.702;8.884;2023-07-30T02:10:26;16.00;99.90
74822;DHT22;63353;48.702;8.884;2023-07-30T02:12:52;16.10;99.90
74822;DHT22;63353;48.702;8.884;2023-07-30T02:15:21;16.00;99.90
74822;DHT22;63353;48.702;8.884;2023-07-30T02:17:46;16.00;99.90
74822;DHT22;63353;48.702;8.884;2023-07-30T02:20:12;16.10;99.90
74822;DHT22;63353;48.702;8.884;2023-07-30T02:22:40;16.20;99.90
74822;DHT22;63353;48.702;8.884;2023-07-30T02:25:12;16.10;99.90
74822;DHT22;63353;48.702;8.884;2023-07-30T02:27:58;16.20;99.90
74822;DHT22;63353;48.702;8.884;2023-07-30T02:30:24;16.10;99.90
74822;DHT22;63353;48.702;8.884;2023-07-30T02:32:50;16.00;99.90
74822;DHT22;63353;48.702;8.884;2023-07-30T02:35:18;16.00;99.90
74822;DHT22;63353;48.702;8.884;2023-07-30T02:37:53;15.90;99.90
74822;DHT22;63353;48.702;8.884;2023-07-30T02:40:27;15.80;99.90
74822;DHT22;63353;48.702;8.884;2023-07-30T02:42:59;15.80;99.90
74822;DHT22;63353;48.702;8.884;2023-07-30T02:45:28;15.70;99.90
74822;DHT22;63353;48.702;8.884;2023-07-30T02:47:53;15.70;99.90
74822;DHT22;63353;48.702;8.884;2023-07-30T02:50:22;15.60;99.90
74822;DHT22;63353;48.702;8.884;2023-07-30T02:52:48;15.60;99.90
74822;DHT22;63353;48.702;8.884;2023-07-30T02:55:16;15.60;99.90
74822;DHT22;63353;48.702;8.884;2023-07-30T02:57:42;15.70;99.90
74822;DHT22;63353;48.702;8.884;2023-07-30T03:00:08;15.70;99.90
74822;DHT22;63353;48.702;8.884;2023-07-30T03:02:46;15.70;99.90
74822;DHT22;63353;48.702;8.884;2023-07-30T03:05:12;15.70;99.90
74822;DHT22;63353;48.702;8.884;2023-07-30T03:07:47;15.70;99.90
74822;DHT22;63353;48.702;8.884;2023-07-30T03:10:15;15.70;99.90
74822;DHT22;63353;48.702;8.884;2023-07-30T03:12:41;15.80;99.90
74822;DHT22;63353;48.702;8.884;2023-07-30T03:15:10;15.90;99.90
74822;DHT22;63353;48.702;8.884;2023-07-30T03:17:36;15.90;99.90
74822;DHT22;63353;48.702;8.884;2023-07-30T03:20:02;16.00;99.90
74822;DHT22;63353;48.702;8.884;2023-07-30T03:22:28;16.00;99.90
74822;DHT22;63353;48.702;8.884;2023-07-30T03:24:57;16.00;99.90
74822;DHT22;63353;48.702;8.884;2023-07-30T03:27:25;16.00;99.90
74822;DHT22;63353;48.702;8.884;2023-07-30T03:29:51;16.00;99.90
74822;DHT22;63353;48.702;8.884;2023-07-30T03:32:23;15.90;99.90
74822;DHT22;63353;48.702;8.884;2023-07-30T03:34:48;15.90;99.90
74822;DHT22;63353;48.702;8.884;2023-07-30T03:37:14;15.90;99.90
74822;DHT22;63353;48.702;8.884;2023-07-30T03:39:40;15.90;99.90
74822;DHT22;63353;48.702;8.884;2023-07-30T03:42:05;15.90;99.90
74822;DHT22;63353;48.702;8.884;2023-07-30T03:44:31;15.90;99.90
74822;DHT22;63353;48.702;8.884;2023-07-30T03:47:00;15.90;99.90
74822;DHT22;63353;48.702;8.884;2023-07-30T03:49:28;15.90;99.90
74822;DHT22;63353;48.702;8.884;2023-07-30T03:51:54;15.90;99.90
74822;DHT22;63353;48.702;8.884;2023-07-30T03:54:20;15.90;99.90
74822;DHT22;63353;48.702;8.884;2023-07-30T03:56:45;15.80;99.90
74822;DHT22;63353;48.702;8.884;2023-07-30T03:59:14;15.80;99.90
74822;DHT22;63353;48.702;8.884;2023-07-30T04:01:39;15.80;99.90
74822;DHT22;63353;48.702;8.884;2023-07-30T04:04:05;15.70;99.90
74822;DHT22;63353;48.702;8.884;2023-07-30T04:06:30;15.70;99.90
74822;DHT22;63353;48.702;8.884;2023-07-30T04:08:56;15.70;99.90
74822;DHT22;63353;48.702;8.884;2023-07-30T04:11:22;15.60;99.90
74822;DHT22;63353;48.702;8.884;2023-07-30T04:13:53;15.60;99.90
74822;DHT22;63353;48.702;8.884;2023-07-30T04:16:19;15.60;99.90
74822;DHT22;63353;48.702;8.884;2023-07-30T04:18:45;15.60;99.90
74822;DHT22;63353;48.702;8.884;2023-07-30T04:21:10;15.60;99.90
74822;DHT22;63353;48.702;8.884;2023-07-30T04:23:39;15.60;99.90
74822;DHT22;63353;48.702;8.884;2023-07-30T04:26:04;15.60;99.90
74822;DHT22;63353;48.702;8.884;2023-07-30T04:28:30;15.70;99.90
74822;DHT22;63353;48.702;8.884;2023-07-30T04:30:56;15.70;99.90
74822;DHT22;63353;48.702;8.884;2023-07-30T04:33:21;15.70;99.90
74822;DHT22;63353;48.702;8.884;2023-07-30T04:35:47;15.70;99.90
74822;DHT22;63353;48.702;8.884;2023-07-30T04:38:13;15.70;99.90
74822;DHT22;63353;48.702;8.884;2023-07-30T04:40:39;15.70;99.90
74822;DHT22;63353;48.702;8.884;2023-07-30T04:43:04;15.80;99.90
74822;DHT22;63353;48.702;8.884;2023-07-30T04:45:30;15.70;99.90
74822;DHT22;63353;48.702;8.884;2023-07-30T04:47:56;15.80;99.90
74822;DHT22;63353;48.702;8.884;2023-07-30T04:50:22;15.80;99.90
74822;DHT22;63353;48.702;8.884;2023-07-30T04:52:48;15.80;99.90
74822;DHT22;63353;48.702;8.884;2023-07-30T04:55:14;15.80;99.90
74822;DHT22;63353;48.702;8.884;2023-07-30T04:57:46;15.80;99.90
74822;DHT22;63353;48.702;8.884;2023-07-30T05:00:12;15.80;99.90
74822;DHT22;63353;48.702;8.884;2023-07-30T05:02:38;15.90;99.90
74822;DHT22;63353;48.702;8.884;2023-07-30T05:05:07;15.90;99.90
74822;DHT22;63353;48.702;8.884;2023-07-30T05:07:33;16.00;99.90
74822;DHT22;63353;48.702;8.884;2023-07-30T05:09:58;16.00;99.90
74822;DHT22;63353;48.702;8.884;2023-07-30T05:12:24;16.00;99.90
74822;DHT22;63353;48.702;8.884;2023-07-30T05:14:49;16.10;99.90
74822;DHT22;63353;48.702;8.884;2023-07-30T05:17:15;16.10;99.90
74822;DHT22;63353;48.702;8.884;2023-07-30T05:19:41;16.20;99.90
74822;DHT22;63353;48.702;8.884;2023-07-30T05:22:07;16.20;99.90
74822;DHT22;63353;48.702;8.884;2023-07-30T05:24:35;16.30;99.90
74822;DHT22;63353;48.702;8.884;2023-07-30T05:27:12;16.40;99.90
74822;DHT22;63353;48.702;8.884;2023-07-30T05:29:41;16.50;99.90
74822;DHT22;63353;48.702;8.884;2023-07-30T05:32:07;16.50;99.90
74822;DHT22;63353;48.702;8.884;2023-07-30T05:34:34;16.50;99.90
74822;DHT22;63353;48.702;8.884;2023-07-30T05:37:00;16.50;99.90
74822;DHT22;63353;48.702;8.884;2023-07-30T05:39:26;16.60;99.90
74822;DHT22;63353;48.702;8.884;2023-07-30T05:41:55;16.60;99.90
74822;DHT22;63353;48.702;8.884;2023-07-30T05:44:23;16.70;99.90
74822;DHT22;63353;48.702;8.884;2023-07-30T05:46:49;16.70;99.90
74822;DHT22;63353;48.702;8.884;2023-07-30T05:49:14;16.80;99.90
74822;DHT22;63353;48.702;8.884;2023-07-30T05:51:46;16.90;99.90
74822;DHT22;63353;48.702;8.884;2023-07-30T05:54:24;17.00;99.90
74822;DHT22;63353;48.702;8.884;2023-07-30T05:56:50;17.00;99.90
74822;DHT22;63353;48.702;8.884;2023-07-30T05:59:15;17.10;99.90
74822;DHT22;63353;48.702;8.884;2023-07-30T06:01:41;17.10;99.90
74822;DHT22;63353;48.702;8.884;2023-07-30T06:04:06;17.10;99.90
74822;DHT22;63353;48.702;8.884;2023-07-30T06:06:32;17.10;99.90
74822;DHT22;63353;48.702;8.884;2023-07-30T06:08:58;17.10;99.90
74822;DHT22;63353;48.702;8.884;2023-07-30T06:11:25;17.00;99.90
74822;DHT22;63353;48.702;8.884;2023-07-30T06:13:50;17.00;99.90
74822;DHT22;63353;48.702;8.884;2023-07-30T06:16:19;17.10;99.90
74822;DHT22;63353;48.702;8.884;2023-07-30T06:18:46;17.20;99.90
74822;DHT22;63353;48.702;8.884;2023-07-30T06:21:12;17.50;99.90
74822;DHT22;63353;48.702;8.884;2023-07-30T06:23:37;17.70;99.90
74822;DHT22;63353;48.702;8.884;2023-07-30T06:26:03;17.90;99.90
74822;DHT22;63353;48.702;8.884;2023-07-30T06:28:28;18.00;99.90
74822;DHT22;63353;48.702;8.884;2023-07-30T06:30:54;18.30;99.90
74822;DHT22;63353;48.702;8.884;2023-07-30T06:33:20;18.50;99.90
74822;DHT22;63353;48.702;8.884;2023-07-30T06:35:45;18.50;99.90
74822;DHT22;63353;48.702;8.884;2023-07-30T06:38:11;18.50;99.90
74822;DHT22;63353;48.702;8.884;2023-07-30T06:40:37;18.40;99.90
74822;DHT22;63353;48.702;8.884;2023-07-30T06:43:09;18.30;99.90
74822;DHT22;63353;48.702;8.884;2023-07-30T06:45:35;18.20;99.90
74822;DHT22;63353;48.702;8.884;2023-07-30T06:48:01;18.00;99.90
74822;DHT22;63353;48.702;8.884;2023-07-30T06:50:26;18.00;99.90
74822;DHT22;63353;48.702;8.884;2023-07-30T06:52:52;18.10;99.90
74822;DHT22;63353;48.702;8.884;2023-07-30T06:55:18;18.00;99.90
74822;DHT22;63353;48.702;8.884;2023-07-30T06:57:43;18.00;99.90
74822;DHT22;63353;48.702;8.884;2023-07-30T07:00:15;18.00;99.90
74822;DHT22;63353;48.702;8.884;2023-07-30T07:02:48;17.90;99.90
74822;DHT22;63353;48.702;8.884;2023-07-30T07:05:14;17.90;99.90
74822;DHT22;63353;48.702;8.884;2023-07-30T07:07:40;17.80;99.90
74822;DHT22;63353;48.702;8.884;2023-07-30T07:10:06;17.60;99.90
74822;DHT22;63353;48.702;8.884;2023-07-30T07:12:32;17.50;99.90
74822;DHT22;63353;48.702;8.884;2023-07-30T07:14:58;17.40;99.90
74822;DHT22;63353;48.702;8.884;2023-07-30T07:17:27;17.40;99.90
74822;DHT22;63353;48.702;8.884;2023-07-30T07:19:56;17.40;99.90
74822;DHT22;63353;48.702;8.884;2023-07-30T07:22:27;17.40;99.90
74822;DHT22;63353;48.702;8.884;2023-07-30T07:24:53;17.50;99.90
74822;DHT22;63353;48.702;8.884;2023-07-30T07:27:25;17.60;99.90
74822;DHT22;63353;48.702;8.884;2023-07-30T07:29:51;17.70;99.90
74822;DHT22;63353;48.702;8.884;2023-07-30T07:32:20;17.80;99.90
74822;DHT22;63353;48.702;8.884;2023-07-30T07:34:47;17.80;99.90
74822;DHT22;63353;48.702;8.884;2023-07-30T07:37:13;17.80;99.90
74822;DHT22;63353;48.702;8.884;2023-07-30T07:39:41;17.80;99.90
74822;DHT22;63353;48.702;8.884;2023-07-30T07:42:13;17.90;99.90
74822;DHT22;63353;48.702;8.884;2023-07-30T07:44:42;17.90;99.90
74822;DHT22;63353;48.702;8.884;2023-07-30T07:47:11;18.00;99.90
74822;DHT22;63353;48.702;8.884;2023-07-30T07:49:37;18.20;99.90
74822;DHT22;63353;48.702;8.884;2023-07-30T07:52:03;18.20;99.90
74822;DHT22;63353;48.702;8.884;2023-07-30T07:54:29;18.30;99.90
74822;DHT22;63353;48.702;8.884;2023-07-30T07:56:54;18.40;99.90
74822;DHT22;63353;48.702;8.884;2023-07-30T07:59:20;18.50;99.90
74822;DHT22;63353;48.702;8.884;2023-07-30T08:01:46;18.70;99.90
74822;DHT22;63353;48.702;8.884;2023-07-30T08:04:20;18.80;99.90
74822;DHT22;63353;48.702;8.884;2023-07-30T08:06:53;19.00;99.90
74822;DHT22;63353;48.702;8.884;2023-07-30T08:09:22;19.20;99.90
74822;DHT22;63353;48.702;8.884;2023-07-30T08:11:50;19.50;99.90
74822;DHT22;63353;48.702;8.884;2023-07-30T08:14:22;20.00;99.90
74822;DHT22;63353;48.702;8.884;2023-07-30T08:16:47;20.30;99.90
74822;DHT22;63353;48.702;8.884;2023-07-30T08:19:22;20.70;99.90
74822;DHT22;63353;48.702;8.884;2023-07-30T08:21:48;20.50;99.90
74822;DHT22;63353;48.702;8.884;2023-07-30T08:24:16;20.40;99.90
74822;DHT22;63353;48.702;8.884;2023-07-30T08:26:51;20.40;99.90
74822;DHT22;63353;48.702;8.884;2023-07-30T08:29:19;20.00;99.90
74822;DHT22;63353;48.702;8.884;2023-07-30T08:31:48;20.10;99.90
74822;DHT22;63353;48.702;8.884;2023-07-30T08:34:17;19.90;99.90
74822;DHT22;63353;48.702;8.884;2023-07-30T08:36:52;19.90;99.90
74822;DHT22;63353;48.702;8.884;2023-07-30T08:39:24;19.90;99.90
74822;DHT22;63353;48.702;8.884;2023-07-30T08:41:49;20.10;99.90
74822;DHT22;63353;48.702;8.884;2023-07-30T08:44:15;19.80;99.90
74822;DHT22;63353;48.702;8.884;2023-07-30T08:46:47;19.80;99.90
74822;DHT22;63353;48.702;8.884;2023-07-30T08:49:19;19.90;99.90
74822;DHT22;63353;48.702;8.884;2023-07-30T08:51:48;19.70;99.90
74822;DHT22;63353;48.702;8.884;2023-07-30T08:54:18;19.70;99.90
74822;DHT22;63353;48.702;8.884;2023-07-30T08:56:44;19.60;99.90
74822;DHT22;63353;48.702;8.884;2023-07-30T08:59:10;19.70;99.90
74822;DHT22;63353;48.702;8.884;2023-07-30T09:01:38;19.80;99.90
74822;DHT22;63353;48.702;8.884;2023-07-30T09:04:06;19.80;99.90
74822;DHT22;63353;48.702;8.884;2023-07-30T09:06:32;19.70;99.90
74822;DHT22;63353;48.702;8.884;2023-07-30T09:08:58;19.70;99.90
74822;DHT22;63353;48.702;8.884;2023-07-30T09:11:26;19.70;99.90
74822;DHT22;63353;48.702;8.884;2023-07-30T09:13:54;19.70;99.90
74822;DHT22;63353;48.702;8.884;2023-07-30T09:16:26;20.00;99.90
74822;DHT22;63353;48.702;8.884;2023-07-30T09:18:52;19.90;99.90
74822;DHT22;63353;48.702;8.884;2023-07-30T09:21:19;19.70;99.90
74822;DHT22;63353;48.702;8.884;2023-07-30T09:23:46;19.60;99.90
74822;DHT22;63353;48.702;8.884;2023-07-30T09:26:13;19.20;99.90
74822;DHT22;63353;48.702;8.884;2023-07-30T09:28:42;18.80;99.90
74822;DHT22;63353;48.702;8.884;2023-07-30T09:31:08;18.70;99.90
74822;DHT22;63353;48.702;8.884;2023-07-30T09:33:35;18.50;99.90
74822;DHT22;63353;48.702;8.884;2023-07-30T09:36:05;18.60;99.90
74822;DHT22;63353;48.702;8.884;2023-07-30T09:38:32;18.70;99.90
74822;DHT22;63353;48.702;8.884;2023-07-30T09:41:02;19.00;99.90
74822;DHT22;63353;48.702;8.884;2023-07-30T09:43:35;19.30;99.90
74822;DHT22;63353;48.702;8.884;2023-07-30T09:46:02;19.40;99.90
74822;DHT22;63353;48.702;8.884;2023-07-30T09:48:29;19.40;99.90
74822;DHT22;63353;48.702;8.884;2023-07-30T09:50:59;19.80;99.90
74822;DHT22;63353;48.702;8.884;2023-07-30T09:53:26;19.90;99.90
74822;DHT22;63353;48.702;8.884;2023-07-30T09:55:54;19.80;99.90
74822;DHT22;63353;48.702;8.884;2023-07-30T09:58:20;19.60;99.90
74822;DHT22;63353;48.702;8.884;2023-07-30T10:00:50;19.60;99.90
74822;DHT22;63353;48.702;8.884;2023-07-30T10:03:20;19.80;99.90
74822;DHT22;63353;48.702;8.884;2023-07-30T10:05:50;20.50;99.90
74822;DHT22;63353;48.702;8.884;2023-07-30T10:08:25;20.90;99.90
74822;DHT22;63353;48.702;8.884;2023-07-30T10:10:56;21.10;99.90
74822;DHT22;63353;48.702;8.884;2023-07-30T10:13:23;21.20;99.90
74822;DHT22;63353;48.702;8.884;2023-07-30T10:15:49;21.20;99.90
74822;DHT22;63353;48.702;8.884;2023-07-30T10:18:16;21.10;99.90
74822;DHT22;63353;48.702;8.884;2023-07-30T10:20:51;20.90;99.90
74822;DHT22;63353;48.702;8.884;2023-07-30T10:23:17;20.90;99.90
74822;DHT22;63353;48.702;8.884;2023-07-30T10:25:47;20.90;99.90
74822;DHT22;63353;48.702;8.884;2023-07-30T10:28:33;20.90;99.90
74822;DHT22;63353;48.702;8.884;2023-07-30T10:31:07;20.90;99.90
74822;DHT22;63353;48.702;8.884;2023-07-30T10:33:51;20.90;99.90
74822;DHT22;63353;48.702;8.884;2023-07-30T10:41:50;20.30;99.90
74822;DHT22;63353;48.702;8.884;2023-07-30T10:44:32;20.90;99.90
74822;DHT22;63353;48.702;8.884;2023-07-30T10:46:59;21.40;99.90
74822;DHT22;63353;48.702;8.884;2023-07-30T10:49:25;21.90;99.90
74822;DHT22;63353;48.702;8.884;2023-07-30T10:51:53;22.10;99.90
74822;DHT22;63353;48.702;8.884;2023-07-30T10:54:19;22.40;99.90
74822;DHT22;63353;48.702;8.884;2023-07-30T10:56:45;22.70;99.90
74822;DHT22;63353;48.702;8.884;2023-07-30T10:59:12;22.70;99.90
74822;DHT22;63353;48.702;8.884;2023-07-30T11:01:42;22.20;99.90
74822;DHT22;63353;48.702;8.884;2023-07-30T11:04:15;22.00;99.90
74822;DHT22;63353;48.702;8.884;2023-07-30T11:06:49;22.20;99.90
74822;DHT22;63353;48.702;8.884;2023-07-30T11:09:23;22.70;99.90
74822;DHT22;63353;48.702;8.884;2023-07-30T11:11:51;22.80;99.90
74822;DHT22;63353;48.702;8.884;2023-07-30T11:14:20;22.60;99.90
74822;DHT22;63353;48.702;8.884;2023-07-30T11:16:57;22.70;99.90
74822;DHT22;63353;48.702;8.884;2023-07-30T11:19:30;22.60;99.90
74822;DHT22;63353;48.702;8.884;2023-07-30T11:21:57;22.30;99.90
74822;DHT22;63353;48.702;8.884;2023-07-30T11:24:44;22.50;99.90
74822;DHT22;63353;48.702;8.884;2023-07-30T11:27:15;22.70;99.90
74822;DHT22;63353;48.702;8.884;2023-07-30T11:29:54;22.50;99.90
74822;DHT22;63353;48.702;8.884;2023-07-30T11:32:19;21.90;99.90
74822;DHT22;63353;48.702;8.884;2023-07-30T11:34:48;21.70;99.90
74822;DHT22;63353;48.702;8.884;2023-07-30T11:37:14;21.70;99.90
74822;DHT22;63353;48.702;8.884;2023-07-30T11:39:40;21.30;99.90
74822;DHT22;63353;48.702;8.884;2023-07-30T11:42:11;21.00;99.90
74822;DHT22;63353;48.702;8.884;2023-07-30T11:44:38;20.40;99.90
74822;DHT22;63353;48.702;8.884;2023-07-30T11:47:05;20.30;99.90
74822;DHT22;63353;48.702;8.884;2023-07-30T11:49:36;20.30;99.90
74822;DHT22;63353;48.702;8.884;2023-07-30T11:52:09;20.60;99.90
74822;DHT22;63353;48.702;8.884;2023-07-30T11:54:36;21.20;99.90
74822;DHT22;63353;48.702;8.884;2023-07-30T11:57:01;21.40;99.90
74822;DHT22;63353;48.702;8.884;2023-07-30T11:59:33;21.80;99.90
74822;DHT22;63353;48.702;8.884;2023-07-30T12:01:59;22.20;99.90
74822;DHT22;63353;48.702;8.884;2023-07-30T12:04:25;22.00;99.90
74822;DHT22;63353;48.702;8.884;2023-07-30T12:06:51;22.30;99.90
74822;DHT22;63353;48.702;8.884;2023-07-30T12:12:00;21.20;99.90
74822;DHT22;63353;48.702;8.884;2023-07-30T12:17:13;21.50;99.90
74822;DHT22;63353;48.702;8.884;2023-07-30T12:19:39;21.80;99.90
74822;DHT22;63353;48.702;8.884;2023-07-30T12:22:09;22.50;99.90
74822;DHT22;63353;48.702;8.884;2023-07-30T12:24:34;22.50;99.90
74822;DHT22;63353;48.702;8.884;2023-07-30T12:27:00;22.00;99.90
74822;DHT22;63353;48.702;8.884;2023-07-30T12:29:26;21.80;99.90
74822;DHT22;63353;48.702;8.884;2023-07-30T12:31:52;21.30;99.90
74822;DHT22;63353;48.702;8.884;2023-07-30T12:34:22;20.50;99.90
74822;DHT22;63353;48.702;8.884;2023-07-30T12:36:48;20.20;99.90
74822;DHT22;63353;48.702;8.884;2023-07-30T12:39:14;20.40;99.90
74822;DHT22;63353;48.702;8.884;2023-07-30T12:41:42;20.80;99.90
74822;DHT22;63353;48.702;8.884;2023-07-30T12:44:08;21.40;99.90
74822;DHT22;63353;48.702;8.884;2023-07-30T12:46:40;21.50;99.90
74822;DHT22;63353;48.702;8.884;2023-07-30T12:49:06;21.80;99.90
74822;DHT22;63353;48.702;8.884;2023-07-30T12:51:32;22.30;99.90
74822;DHT22;63353;48.702;8.884;2023-07-30T12:53:59;22.60;99.90
74822;DHT22;63353;48.702;8.884;2023-07-30T12:56:24;22.60;99.90
74822;DHT22;63353;48.702;8.884;2023-07-30T12:58:53;23.40;99.90
74822;DHT22;63353;48.702;8.884;2023-07-30T13:01:18;23.70;99.90
74822;DHT22;63353;48.702;8.884;2023-07-30T13:03:44;24.10;99.90
74822;DHT22;63353;48.702;8.884;2023-07-30T13:06:15;23.90;99.90
74822;DHT22;63353;48.702;8.884;2023-07-30T13:08:40;23.30;99.90
74822;DHT22;63353;48.702;8.884;2023-07-30T13:11:06;22.80;99.90
74822;DHT22;63353;48.702;8.884;2023-07-30T13:13:32;22.50;99.90
74822;DHT22;63353;48.702;8.884;2023-07-30T13:15:58;21.80;99.90
74822;DHT22;63353;48.702;8.884;2023-07-30T13:18:26;21.70;99.90
74822;DHT22;63353;48.702;8.884;2023-07-30T13:20:55;22.20;99.90
74822;DHT22;63353;48.702;8.884;2023-07-30T13:23:24;22.50;99.90
74822;DHT22;63353;48.702;8.884;2023-07-30T13:25:56;22.60;99.90
74822;DHT22;63353;48.702;8.884;2023-07-30T13:28:22;22.90;99.90
74822;DHT22;63353;48.702;8.884;2023-07-30T13:30:54;22.60;99.90
74822;DHT22;63353;48.702;8.884;2023-07-30T13:33:28;22.30;99.90
74822;DHT22;63353;48.702;8.884;2023-07-30T13:35:54;22.30;99.90
74822;DHT22;63353;48.702;8.884;2023-07-30T13:38:22;22.20;99.90
74822;DHT22;63353;48.702;8.884;2023-07-30T13:40:50;22.20;99.90
74822;DHT22;63353;48.702;8.884;2023-07-30T13:43:19;22.70;99.90
74822;DHT22;63353;48.702;8.884;2023-07-30T13:45:45;23.40;99.90
74822;DHT22;63353;48.702;8.884;2023-07-30T13:48:11;23.30;99.90
74822;DHT22;63353;48.702;8.884;2023-07-30T13:50:37;23.20;99.90
74822;DHT22;63353;48.702;8.884;2023-07-30T13:53:03;22.50;99.90
74822;DHT22;63353;48.702;8.884;2023-07-30T13:55:28;22.90;99.90
74822;DHT22;63353;48.702;8.884;2023-07-30T13:57:54;23.90;99.90
74822;DHT22;63353;48.702;8.884;2023-07-30T14:00:20;24.20;99.90
74822;DHT22;63353;48.702;8.884;2023-07-30T14:02:49;24.60;99.90
74822;DHT22;63353;48.702;8.884;2023-07-30T14:05:19;24.30;99.90
74822;DHT22;63353;48.702;8.884;2023-07-30T14:07:50;23.60;99.90
74822;DHT22;63353;48.702;8.884;2023-07-30T14:10:19;23.10;99.90
74822;DHT22;63353;48.702;8.884;2023-07-30T14:12:45;22.70;99.90
74822;DHT22;63353;48.702;8.884;2023-07-30T14:15:22;22.40;99.90
74822;DHT22;63353;48.702;8.884;2023-07-30T14:17:51;23.10;99.90
74822;DHT22;63353;48.702;8.884;2023-07-30T14:20:21;22.90;99.90
74822;DHT22;63353;48.702;8.884;2023-07-30T14:22:47;22.90;99.90
74822;DHT22;63353;48.702;8.884;2023-07-30T14:25:14;23.70;99.90
74822;DHT22;63353;48.702;8.884;2023-07-30T14:27:40;24.20;99.90
74822;DHT22;63353;48.702;8.884;2023-07-30T14:30:07;24.70;99.90
74822;DHT22;63353;48.702;8.884;2023-07-30T14:32:33;25.00;99.90
74822;DHT22;63353;48.702;8.884;2023-07-30T14:35:06;25.80;99.90
74822;DHT22;63353;48.702;8.884;2023-07-30T14:37:32;26.40;99.90
74822;DHT22;63353;48.702;8.884;2023-07-30T14:39:58;26.10;99.90
74822;DHT22;63353;48.702;8.884;2023-07-30T14:42:24;25.00;99.90
74822;DHT22;63353;48.702;8.884;2023-07-30T14:44:49;24.40;99.90
74822;DHT22;63353;48.702;8.884;2023-07-30T14:47:15;24.80;99.90
74822;DHT22;63353;48.702;8.884;2023-07-30T14:49:41;25.50;99.90
74822;DHT22;63353;48.702;8.884;2023-07-30T14:52:07;24.30;99.90
74822;DHT22;63353;48.702;8.884;2023-07-30T14:54:36;25.10;99.90
74822;DHT22;63353;48.702;8.884;2023-07-30T14:57:01;24.90;99.90
74822;DHT22;63353;48.702;8.884;2023-07-30T14:59:27;25.00;99.90
74822;DHT22;63353;48.702;8.884;2023-07-30T15:01:52;24.40;99.90
74822;DHT22;63353;48.702;8.884;2023-07-30T15:04:18;24.50;99.90
74822;DHT22;63353;48.702;8.884;2023-07-30T15:06:44;24.80;99.90
74822;DHT22;63353;48.702;8.884;2023-07-30T15:09:10;24.80;99.90
74822;DHT22;63353;48.702;8.884;2023-07-30T15:11:39;25.70;99.90
74822;DHT22;63353;48.702;8.884;2023-07-30T15:14:04;26.60;99.90
74822;DHT22;63353;48.702;8.884;2023-07-30T15:16:30;26.70;99.90
74822;DHT22;63353;48.702;8.884;2023-07-30T15:18:55;26.40;99.90
74822;DHT22;63353;48.702;8.884;2023-07-30T15:21:31;26.90;99.90
74822;DHT22;63353;48.702;8.884;2023-07-30T15:23:56;26.40;99.90
74822;DHT22;63353;48.702;8.884;2023-07-30T15:26:24;26.60;99.90
74822;DHT22;63353;48.702;8.884;2023-07-30T15:28:49;26.60;99.90
74822;DHT22;63353;48.702;8.884;2023-07-30T15:31:15;26.50;99.90
74822;DHT22;63353;48.702;8.884;2023-07-30T15:33:41;26.50;99.90
74822;DHT22;63353;48.702;8.884;2023-07-30T15:36:06;26.80;99.90
74822;DHT22;63353;48.702;8.884;2023-07-30T15:38:32;27.00;99.90
74822;DHT22;63353;48.702;8.884;2023-07-30T15:40:58;28.00;99.90
74822;DHT22;63353;48.702;8.884;2023-07-30T15:43:24;27.60;99.90
74822;DHT22;63353;48.702;8.884;2023-07-30T15:45:52;27.60;99.90